Time;durP1;ratioP1;P1;durP2;ratioP2;P2;SDS_P1;SDS_P2;PMS_P1;PMS_P2;Temp;Humidity;BMP_temperature;BMP_pressure;BME280_temperature;BME280_humidity;BME280_pressure;Samples;Min_cycle;Max_cycle;Signal;HPM_P1;HPM_P2
2022/07/10 00:02:05;;;;;;;;;;;25.20;92.30;;;;;;5050851;28;19925;-56
2022/07/10 00:04:33;;;;;;;;;;;25.20;92.20;;;;;;5051087;28;19925;-56
2022/07/10 00:07:01;;;;;;;;;;;25.10;91.70;;;;;;5050656;28;20411;-56
2022/07/10 00:09:29;;;;;;;;;;;25.20;91.70;;;;;;5050912;28;19925;-56
2022/07/10 00:11:56;;;;;;;;;;;25.20;91.30;;;;;;5062069;28;19924;-57
2022/07/10 00:14:24;;;;;;;;;;;25.10;90.80;;;;;;5068071;28;19924;-52
2022/07/10 00:16:51;;;;;;;;;;;25.10;90.70;;;;;;5051252;28;20296;-55
2022/07/10 00:19:18;;;;;;;;;;;25.10;90.60;;;;;;5065632;28;19925;-55
2022/07/10 00:21:45;;;;;;;;;;;25.10;90.50;;;;;;5055485;28;19921;-57
2022/07/10 00:24:12;;;;;;;;;;;25.10;90.40;;;;;;5054329;28;19931;-53
2022/07/10 00:26:39;;;;;;;;;;;25.00;90.40;;;;;;5075543;28;19931;-55
2022/07/10 00:29:08;;;;;;;;;;;25.10;90.40;;;;;;5054037;28;19921;-56
2022/07/10 00:31:35;;;;;;;;;;;25.10;90.40;;;;;;5062284;28;19929;-55
2022/07/10 00:34:03;;;;;;;;;;;25.00;90.30;;;;;;5050206;28;19932;-57
2022/07/10 00:36:30;;;;;;;;;;;25.10;90.30;;;;;;5051674;28;20490;-57
2022/07/10 00:38:57;;;;;;;;;;;25.00;90.30;;;;;;5051415;28;19920;-52
2022/07/10 00:41:24;;;;;;;;;;;25.00;90.30;;;;;;5066503;28;19920;-55
2022/07/10 00:43:58;;;;;;;;;;;25.00;90.30;;;;;;5059772;28;19920;-50
2022/07/10 00:46:26;;;;;;;;;;;25.00;90.40;;;;;;5051318;28;19932;-57
2022/07/10 00:48:54;;;;;;;;;;;25.00;90.30;;;;;;5054774;28;19924;-53
2022/07/10 00:51:23;;;;;;;;;;;25.00;90.30;;;;;;5055869;28;19925;-52
2022/07/10 00:53:51;;;;;;;;;;;25.00;90.30;;;;;;5049138;28;19929;-51
2022/07/10 00:56:19;;;;;;;;;;;25.00;90.40;;;;;;5060195;28;19924;-54
2022/07/10 00:58:47;;;;;;;;;;;25.00;90.30;;;;;;5053159;28;19925;-54
2022/07/10 01:01:14;;;;;;;;;;;25.00;90.30;;;;;;5053992;28;20475;-52
2022/07/10 01:03:41;;;;;;;;;;;25.00;90.40;;;;;;5049783;28;20344;-55
2022/07/10 01:06:09;;;;;;;;;;;25.00;90.40;;;;;;5057354;28;19932;-53
2022/07/10 01:08:36;;;;;;;;;;;25.00;90.40;;;;;;5049945;28;19955;-56
2022/07/10 01:11:04;;;;;;;;;;;25.00;90.40;;;;;;5054499;28;19924;-57
2022/07/10 01:13:31;;;;;;;;;;;25.00;90.40;;;;;;5057530;28;19929;-53
2022/07/10 01:15:58;;;;;;;;;;;25.00;90.40;;;;;;5053888;28;19924;-54
2022/07/10 01:18:25;;;;;;;;;;;25.00;90.40;;;;;;5059493;28;19920;-56
2022/07/10 01:20:53;;;;;;;;;;;25.00;90.40;;;;;;5049244;28;19936;-53
2022/07/10 01:23:22;;;;;;;;;;;24.90;90.40;;;;;;5049515;28;19974;-54
2022/07/10 01:25:50;;;;;;;;;;;24.90;90.40;;;;;;5049645;28;19928;-55
2022/07/10 01:28:17;;;;;;;;;;;24.90;90.40;;;;;;5050197;28;19928;-53
2022/07/10 01:30:44;;;;;;;;;;;24.90;90.40;;;;;;5050958;28;19947;-54
2022/07/10 01:33:11;;;;;;;;;;;25.00;90.40;;;;;;5049503;28;19932;-55
2022/07/10 01:35:39;;;;;;;;;;;25.00;90.40;;;;;;5050423;28;19925;-53
2022/07/10 01:38:06;;;;;;;;;;;24.90;90.40;;;;;;5049739;28;20415;-53
2022/07/10 01:40:33;;;;;;;;;;;24.90;90.40;;;;;;5059172;28;20347;-54
2022/07/10 01:43:01;;;;;;;;;;;24.90;90.40;;;;;;5063109;28;19947;-54
2022/07/10 01:45:28;;;;;;;;;;;24.90;90.40;;;;;;5067169;28;20430;-56
2022/07/10 01:47:56;;;;;;;;;;;24.90;90.40;;;;;;5056277;28;19932;-55
2022/07/10 01:50:24;;;;;;;;;;;24.90;90.40;;;;;;5065103;28;20402;-56
2022/07/10 01:52:51;;;;;;;;;;;24.90;90.40;;;;;;5056071;28;20010;-57
2022/07/10 01:55:18;;;;;;;;;;;24.80;90.40;;;;;;5055333;28;19924;-56
2022/07/10 01:57:45;;;;;;;;;;;24.90;90.40;;;;;;5049022;28;20288;-57
2022/07/10 02:00:12;;;;;;;;;;;24.80;90.40;;;;;;5059443;28;20280;-57
2022/07/10 02:02:40;;;;;;;;;;;24.80;90.40;;;;;;5050005;28;20308;-56
2022/07/10 02:05:07;;;;;;;;;;;24.80;90.40;;;;;;5056345;28;20382;-53
2022/07/10 02:07:34;;;;;;;;;;;24.80;90.40;;;;;;5057497;28;19932;-55
2022/07/10 02:10:02;;;;;;;;;;;24.80;90.30;;;;;;5049852;28;20280;-54
2022/07/10 02:12:29;;;;;;;;;;;24.80;90.30;;;;;;5063500;28;20003;-54
2022/07/10 02:14:59;;;;;;;;;;;24.80;90.40;;;;;;5052661;28;20414;-58
2022/07/10 02:17:26;;;;;;;;;;;24.80;90.40;;;;;;5051309;28;19925;-54
2022/07/10 02:19:53;;;;;;;;;;;24.80;90.30;;;;;;5049968;28;19924;-54
2022/07/10 02:22:20;;;;;;;;;;;24.80;90.30;;;;;;5048795;28;19929;-53
2022/07/10 02:24:47;;;;;;;;;;;24.80;90.40;;;;;;5048882;28;19924;-57
2022/07/10 02:27:15;;;;;;;;;;;24.80;90.40;;;;;;5048694;28;19932;-54
2022/07/10 02:29:42;;;;;;;;;;;24.80;90.40;;;;;;5050475;28;19924;-55
2022/07/10 02:32:09;;;;;;;;;;;24.80;90.40;;;;;;5049079;28;19932;-52
2022/07/10 02:34:36;;;;;;;;;;;24.80;90.40;;;;;;5048080;28;19928;-55
2022/07/10 02:37:03;;;;;;;;;;;24.80;90.40;;;;;;5049781;28;19925;-51
2022/07/10 02:39:31;;;;;;;;;;;24.80;90.40;;;;;;5048646;28;19932;-54
2022/07/10 02:41:58;;;;;;;;;;;24.80;90.40;;;;;;5069069;28;19932;-54
2022/07/10 02:44:25;;;;;;;;;;;24.80;90.30;;;;;;5062468;28;19920;-55
2022/07/10 02:46:52;;;;;;;;;;;24.80;90.30;;;;;;5052967;28;19927;-53
2022/07/10 02:49:19;;;;;;;;;;;24.80;90.30;;;;;;5047488;28;19928;-54
2022/07/10 02:51:46;;;;;;;;;;;24.70;90.30;;;;;;5059637;28;19931;-56
2022/07/10 02:54:13;;;;;;;;;;;24.70;90.30;;;;;;5049399;28;19940;-52
2022/07/10 02:56:40;;;;;;;;;;;24.70;90.30;;;;;;5056785;28;19928;-56
2022/07/10 02:59:08;;;;;;;;;;;24.70;90.30;;;;;;5049991;28;19932;-56
2022/07/10 03:01:35;;;;;;;;;;;24.70;90.30;;;;;;5051122;28;19932;-55
2022/07/10 03:04:02;;;;;;;;;;;24.70;90.30;;;;;;5047358;28;20688;-52
2022/07/10 03:06:29;;;;;;;;;;;24.70;90.30;;;;;;5048777;28;19932;-54
2022/07/10 03:08:56;;;;;;;;;;;24.70;90.30;;;;;;5048279;28;19925;-52
2022/07/10 03:11:24;;;;;;;;;;;24.70;90.20;;;;;;5049748;28;19931;-54
2022/07/10 03:13:51;;;;;;;;;;;24.70;90.50;;;;;;5047160;28;19925;-56
2022/07/10 03:16:18;;;;;;;;;;;24.60;90.20;;;;;;5048018;28;19925;-54
2022/07/10 03:18:45;;;;;;;;;;;24.60;90.20;;;;;;5047956;28;19921;-56
2022/07/10 03:21:13;;;;;;;;;;;24.60;90.20;;;;;;5048211;28;19933;-51
2022/07/10 03:23:40;;;;;;;;;;;24.60;90.20;;;;;;5054484;28;19924;-52
2022/07/10 03:26:07;;;;;;;;;;;24.60;90.20;;;;;;5047923;28;19921;-55
2022/07/10 03:28:35;;;;;;;;;;;24.60;90.10;;;;;;5049969;28;19925;-57
2022/07/10 03:31:03;;;;;;;;;;;24.60;90.10;;;;;;5051403;28;19924;-56
2022/07/10 03:33:30;;;;;;;;;;;24.60;90.10;;;;;;5050854;28;19921;-54
2022/07/10 03:35:57;;;;;;;;;;;24.60;90.10;;;;;;5060269;28;19924;-55
2022/07/10 03:38:24;;;;;;;;;;;24.60;90.10;;;;;;5051931;28;19924;-54
2022/07/10 03:40:51;;;;;;;;;;;24.60;90.10;;;;;;5054332;28;19951;-54
2022/07/10 03:43:19;;;;;;;;;;;24.60;90.10;;;;;;5051137;28;19931;-52
2022/07/10 03:45:46;;;;;;;;;;;24.60;90.10;;;;;;5052657;28;20430;-54
2022/07/10 03:48:14;;;;;;;;;;;24.60;90.10;;;;;;5051386;28;19924;-52
2022/07/10 03:50:41;;;;;;;;;;;24.60;90.10;;;;;;5051578;28;19935;-52
2022/07/10 03:53:08;;;;;;;;;;;24.60;90.10;;;;;;5052323;28;19932;-52
2022/07/10 03:55:35;;;;;;;;;;;24.60;90.00;;;;;;5053930;28;20027;-56
2022/07/10 03:58:02;;;;;;;;;;;24.60;90.00;;;;;;5053544;28;19931;-53
2022/07/10 04:00:33;;;;;;;;;;;24.60;90.00;;;;;;5066033;28;20307;-54
2022/07/10 04:03:01;;;;;;;;;;;24.60;90.00;;;;;;5054778;28;20208;-53
2022/07/10 04:05:28;;;;;;;;;;;24.50;90.00;;;;;;5064201;28;19925;-55
2022/07/10 04:07:59;;;;;;;;;;;24.50;90.00;;;;;;5050944;28;19931;-56
2022/07/10 04:10:26;;;;;;;;;;;24.50;90.00;;;;;;5062304;28;19925;-52
2022/07/10 04:12:54;;;;;;;;;;;24.50;90.00;;;;;;5050921;28;19924;-51
2022/07/10 04:15:21;;;;;;;;;;;24.50;90.00;;;;;;5058353;28;19925;-56
2022/07/10 04:17:48;;;;;;;;;;;24.50;90.00;;;;;;5050653;28;19924;-52
2022/07/10 04:20:16;;;;;;;;;;;24.50;89.90;;;;;;5050347;28;20035;-55
2022/07/10 04:22:43;;;;;;;;;;;24.50;89.90;;;;;;5050415;28;19924;-51
2022/07/10 04:25:11;;;;;;;;;;;24.50;89.90;;;;;;5051700;28;19931;-54
2022/07/10 04:27:38;;;;;;;;;;;24.50;89.80;;;;;;5050367;28;19925;-55
2022/07/10 04:30:06;;;;;;;;;;;24.50;89.80;;;;;;5050692;28;19939;-53
2022/07/10 04:32:33;;;;;;;;;;;24.50;89.80;;;;;;5049992;28;19932;-54
2022/07/10 04:35:03;;;;;;;;;;;24.50;89.70;;;;;;5051434;28;19921;-54
2022/07/10 04:37:30;;;;;;;;;;;24.50;89.70;;;;;;5050245;28;19928;-55
2022/07/10 04:39:57;;;;;;;;;;;24.50;89.70;;;;;;5050246;28;19931;-56
2022/07/10 04:42:25;;;;;;;;;;;24.50;89.60;;;;;;5056979;28;19921;-55
2022/07/10 04:44:53;;;;;;;;;;;24.50;89.50;;;;;;5049790;28;19924;-55
2022/07/10 04:47:20;;;;;;;;;;;24.50;89.60;;;;;;5049791;28;19931;-54
2022/07/10 04:49:47;;;;;;;;;;;24.50;89.70;;;;;;5053501;28;19939;-54
2022/07/10 04:52:15;;;;;;;;;;;24.50;89.60;;;;;;5053104;28;20380;-53
2022/07/10 04:54:42;;;;;;;;;;;24.60;89.50;;;;;;5062514;28;20296;-52
2022/07/10 04:57:09;;;;;;;;;;;24.50;89.30;;;;;;5060877;28;19921;-55
2022/07/10 04:59:36;;;;;;;;;;;24.60;89.30;;;;;;5059199;28;19921;-52
2022/07/10 05:02:03;;;;;;;;;;;24.60;89.20;;;;;;5059943;28;19932;-52
2022/07/10 05:04:31;;;;;;;;;;;24.60;89.20;;;;;;5067883;28;20515;-49
2022/07/10 05:06:58;;;;;;;;;;;24.60;89.10;;;;;;5057855;28;20364;-54
2022/07/10 05:09:25;;;;;;;;;;;24.60;89.30;;;;;;5054595;28;19920;-52
2022/07/10 05:11:52;;;;;;;;;;;24.50;89.60;;;;;;5051978;28;19928;-53
2022/07/10 05:14:19;;;;;;;;;;;24.60;90.00;;;;;;5054703;28;19925;-56
2022/07/10 05:16:46;;;;;;;;;;;24.60;90.00;;;;;;5053620;28;19925;-52
2022/07/10 05:19:14;;;;;;;;;;;24.60;90.10;;;;;;5059339;28;19931;-56
2022/07/10 05:21:41;;;;;;;;;;;24.60;90.10;;;;;;5058756;28;19935;-59
2022/07/10 05:24:08;;;;;;;;;;;24.70;90.30;;;;;;5057726;28;19947;-56
2022/07/10 05:26:36;;;;;;;;;;;24.70;90.40;;;;;;5054597;28;19931;-55
2022/07/10 05:29:03;;;;;;;;;;;24.60;90.70;;;;;;5056194;28;19931;-62
2022/07/10 05:31:30;;;;;;;;;;;24.70;91.00;;;;;;5057989;28;20011;-61
2022/07/10 05:33:57;;;;;;;;;;;24.80;91.80;;;;;;5056990;28;20388;-60
2022/07/10 05:36:24;;;;;;;;;;;24.80;92.10;;;;;;5058273;28;19920;-58
2022/07/10 05:38:52;;;;;;;;;;;24.90;92.20;;;;;;5053561;28;19924;-56
2022/07/10 05:41:19;;;;;;;;;;;24.90;92.60;;;;;;5053648;28;19924;-55
2022/07/10 05:43:46;;;;;;;;;;;24.90;92.70;;;;;;5061911;28;19948;-62
2022/07/10 05:46:13;;;;;;;;;;;24.90;93.00;;;;;;5054575;28;19940;-60
2022/07/10 05:48:41;;;;;;;;;;;24.90;93.10;;;;;;5053632;28;19940;-61
2022/07/10 05:51:09;;;;;;;;;;;24.90;93.40;;;;;;5055636;28;19924;-59
2022/07/10 05:53:56;;;;;;;;;;;24.90;93.50;;;;;;5050015;28;19925;-59
2022/07/10 05:56:23;;;;;;;;;;;24.90;93.40;;;;;;5059266;28;19929;-53
2022/07/10 05:58:50;;;;;;;;;;;24.90;93.20;;;;;;5059635;28;19924;-60
2022/07/10 06:01:18;;;;;;;;;;;24.90;93.30;;;;;;5062199;28;19936;-62
2022/07/10 06:03:45;;;;;;;;;;;24.90;93.40;;;;;;5062305;28;19935;-58
2022/07/10 06:06:15;;;;;;;;;;;24.90;93.10;;;;;;5059722;28;19925;-60
2022/07/10 06:08:42;;;;;;;;;;;24.80;92.80;;;;;;5056794;28;20315;-59
2022/07/10 06:11:10;;;;;;;;;;;24.80;92.80;;;;;;5056492;28;19920;-58
2022/07/10 06:13:37;;;;;;;;;;;24.80;92.70;;;;;;5049992;28;19931;-58
2022/07/10 06:16:05;;;;;;;;;;;24.80;92.60;;;;;;5063354;28;19921;-57
2022/07/10 06:18:32;;;;;;;;;;;24.80;92.60;;;;;;5066925;28;20047;-60
2022/07/10 06:20:59;;;;;;;;;;;24.80;92.30;;;;;;5063524;28;20422;-60
2022/07/10 06:23:30;;;;;;;;;;;24.80;92.30;;;;;;5063381;28;19931;-60
2022/07/10 06:25:57;;;;;;;;;;;24.80;92.20;;;;;;5064235;28;19928;-61
2022/07/10 06:28:24;;;;;;;;;;;24.80;92.20;;;;;;5053640;28;19924;-63
2022/07/10 06:30:51;;;;;;;;;;;24.80;92.00;;;;;;5074213;28;19920;-60
2022/07/10 06:33:26;;;;;;;;;;;24.70;92.00;;;;;;5061510;28;19928;-59
2022/07/10 06:35:53;;;;;;;;;;;24.70;91.80;;;;;;5053884;28;19924;-61
2022/07/10 06:38:20;;;;;;;;;;;24.70;91.70;;;;;;5055545;28;19944;-60
2022/07/10 06:40:47;;;;;;;;;;;24.70;91.70;;;;;;5056392;28;19928;-59
2022/07/10 06:43:15;;;;;;;;;;;24.60;91.60;;;;;;5063343;28;19924;-60
2022/07/10 06:45:42;;;;;;;;;;;24.70;92.50;;;;;;5063640;28;20012;-58
2022/07/10 06:48:09;;;;;;;;;;;24.70;92.80;;;;;;5053722;28;19927;-60
2022/07/10 06:50:37;;;;;;;;;;;24.70;92.90;;;;;;5059774;28;19921;-61
2022/07/10 06:53:04;;;;;;;;;;;24.80;92.60;;;;;;5059441;28;19928;-60
2022/07/10 06:55:32;;;;;;;;;;;24.80;92.40;;;;;;5072755;28;20337;-58
2022/07/10 06:57:59;;;;;;;;;;;24.80;92.20;;;;;;5058292;28;19931;-58
2022/07/10 07:00:27;;;;;;;;;;;24.80;92.20;;;;;;5056126;28;19924;-59
2022/07/10 07:02:54;;;;;;;;;;;24.80;92.30;;;;;;5067630;28;20026;-58
2022/07/10 07:05:21;;;;;;;;;;;24.80;92.40;;;;;;5066907;28;19927;-58
2022/07/10 07:07:49;;;;;;;;;;;24.80;92.30;;;;;;5054482;28;19924;-61
2022/07/10 07:10:16;;;;;;;;;;;24.80;92.20;;;;;;5067754;28;19920;-58
2022/07/10 07:12:43;;;;;;;;;;;24.80;92.40;;;;;;5061599;28;20253;-56
2022/07/10 07:15:10;;;;;;;;;;;24.80;92.50;;;;;;5063345;28;19920;-60
2022/07/10 07:23:15;;;;;;;;;;;24.80;92.60;;;;;;5060220;28;19952;-61
2022/07/10 07:25:46;;;;;;;;;;;24.80;92.60;;;;;;5056129;28;20242;-61
2022/07/10 07:28:18;;;;;;;;;;;24.80;92.40;;;;;;5057343;28;20474;-61
2022/07/10 07:30:46;;;;;;;;;;;24.80;92.50;;;;;;5059082;28;19920;-61
2022/07/10 07:33:13;;;;;;;;;;;24.90;92.50;;;;;;5052958;28;19931;-58
2022/07/10 07:35:41;;;;;;;;;;;24.90;92.50;;;;;;5050418;28;19925;-59
2022/07/10 07:38:08;;;;;;;;;;;24.90;92.50;;;;;;5050704;28;19924;-59
2022/07/10 07:40:37;;;;;;;;;;;24.90;92.50;;;;;;5073502;28;19931;-59
2022/07/10 07:43:04;;;;;;;;;;;24.90;92.40;;;;;;5051202;28;19929;-57
2022/07/10 07:45:32;;;;;;;;;;;24.80;92.40;;;;;;5051155;28;19935;-60
2022/07/10 07:47:59;;;;;;;;;;;24.80;92.40;;;;;;5055940;28;19931;-60
2022/07/10 07:50:28;;;;;;;;;;;24.80;92.70;;;;;;5057871;28;19931;-61
2022/07/10 07:52:55;;;;;;;;;;;24.80;92.40;;;;;;5060752;28;19931;-59
2022/07/10 07:55:23;;;;;;;;;;;24.80;92.30;;;;;;5051727;28;20396;-60
2022/07/10 07:57:51;;;;;;;;;;;24.80;92.30;;;;;;5066775;28;19924;-56
2022/07/10 08:00:19;;;;;;;;;;;24.80;92.30;;;;;;5061886;28;20387;-60
2022/07/10 08:02:47;;;;;;;;;;;24.70;92.20;;;;;;5054709;28;20312;-57
2022/07/10 08:05:14;;;;;;;;;;;24.80;92.20;;;;;;5056549;28;19924;-57
2022/07/10 08:07:43;;;;;;;;;;;24.70;92.20;;;;;;5056732;28;19943;-58
2022/07/10 08:10:13;;;;;;;;;;;24.80;92.20;;;;;;5056972;28;19920;-60
2022/07/10 08:12:41;;;;;;;;;;;24.80;92.10;;;;;;5057912;28;19927;-58
2022/07/10 08:15:09;;;;;;;;;;;24.80;92.10;;;;;;5057898;28;19924;-60
2022/07/10 08:17:37;;;;;;;;;;;24.80;92.00;;;;;;5059899;28;19932;-59
2022/07/10 08:20:05;;;;;;;;;;;24.80;92.00;;;;;;5061657;28;19924;-58
2022/07/10 08:22:33;;;;;;;;;;;24.80;92.10;;;;;;5063657;28;19924;-58
2022/07/10 08:25:00;;;;;;;;;;;24.80;92.10;;;;;;5056983;28;20028;-61
2022/07/10 08:27:27;;;;;;;;;;;24.80;92.00;;;;;;5060334;28;20463;-60
2022/07/10 08:29:54;;;;;;;;;;;24.80;91.90;;;;;;5064898;28;19921;-60
2022/07/10 08:32:21;;;;;;;;;;;24.80;91.90;;;;;;5050828;28;19951;-60
2022/07/10 08:34:49;;;;;;;;;;;24.80;91.80;;;;;;5054088;28;19928;-59
2022/07/10 08:37:16;;;;;;;;;;;24.70;91.60;;;;;;5055142;28;19921;-60
2022/07/10 08:39:44;;;;;;;;;;;24.80;91.90;;;;;;5057584;28;19925;-64
2022/07/10 08:42:11;;;;;;;;;;;24.80;91.50;;;;;;5053127;28;19925;-57
2022/07/10 08:44:38;;;;;;;;;;;24.80;90.30;;;;;;5051498;28;20302;-60
2022/07/10 08:47:05;;;;;;;;;;;24.80;89.60;;;;;;5058527;28;19935;-59
2022/07/10 08:49:35;;;;;;;;;;;24.80;88.10;;;;;;5056839;28;19931;-63
2022/07/10 08:52:02;;;;;;;;;;;24.70;86.50;;;;;;5059654;28;19924;-62
2022/07/10 08:54:30;;;;;;;;;;;24.70;84.90;;;;;;5066381;28;19924;-60
2022/07/10 08:56:59;;;;;;;;;;;24.70;85.10;;;;;;5053531;28;19925;-61
2022/07/10 08:59:26;;;;;;;;;;;24.60;84.90;;;;;;5060435;28;20209;-60
2022/07/10 09:01:58;;;;;;;;;;;24.60;84.80;;;;;;5062319;28;20303;-58
2022/07/10 09:04:26;;;;;;;;;;;24.60;84.10;;;;;;5061840;28;20308;-59
2022/07/10 09:06:54;;;;;;;;;;;24.60;82.90;;;;;;5081043;28;20030;-59
2022/07/10 09:09:21;;;;;;;;;;;24.60;82.60;;;;;;5053908;28;19935;-59
2022/07/10 09:11:54;;;;;;;;;;;24.60;83.40;;;;;;5054679;28;19924;-57
2022/07/10 09:14:23;;;;;;;;;;;24.60;83.70;;;;;;5059155;28;19926;-59
2022/07/10 09:17:01;;;;;;;;;;;24.60;84.20;;;;;;5062424;28;20391;-58
2022/07/10 09:19:29;;;;;;;;;;;24.60;85.40;;;;;;5060723;28;19924;-59
2022/07/10 09:22:09;;;;;;;;;;;24.70;85.50;;;;;;5055897;28;20007;-58
2022/07/10 09:24:37;;;;;;;;;;;24.70;86.10;;;;;;5051692;28;20348;-58
2022/07/10 09:27:05;;;;;;;;;;;24.70;86.50;;;;;;5053967;28;19925;-58
2022/07/10 09:29:32;;;;;;;;;;;24.80;87.00;;;;;;5052727;28;20412;-55
2022/07/10 09:32:01;;;;;;;;;;;24.80;87.20;;;;;;5056942;28;19972;-61
2022/07/10 09:34:41;;;;;;;;;;;24.80;87.60;;;;;;5065290;28;19931;-62
2022/07/10 09:37:18;;;;;;;;;;;24.90;88.20;;;;;;5056249;28;19983;-63
2022/07/10 09:40:03;;;;;;;;;;;24.90;88.50;;;;;;5049631;28;20027;-60
2022/07/10 09:42:37;;;;;;;;;;;24.90;88.80;;;;;;5061942;28;20396;-55
2022/07/10 09:45:11;;;;;;;;;;;24.90;89.00;;;;;;5053284;28;19925;-64
2022/07/10 09:47:41;;;;;;;;;;;24.90;89.20;;;;;;5065482;28;20418;-56
2022/07/10 09:50:22;;;;;;;;;;;24.80;89.20;;;;;;5056834;28;19924;-59
2022/07/10 09:52:51;;;;;;;;;;;24.80;89.30;;;;;;5057099;28;19925;-59
2022/07/10 09:55:22;;;;;;;;;;;24.80;89.60;;;;;;5056656;28;19925;-61
2022/07/10 09:57:54;;;;;;;;;;;24.80;89.40;;;;;;5051519;28;19920;-59
2022/07/10 10:00:25;;;;;;;;;;;24.80;89.40;;;;;;5059339;28;20343;-60
2022/07/10 10:02:54;;;;;;;;;;;24.80;89.70;;;;;;5062163;28;19928;-59
2022/07/10 10:05:26;;;;;;;;;;;24.90;90.10;;;;;;5050990;28;19921;-58
2022/07/10 10:07:53;;;;;;;;;;;24.90;90.30;;;;;;5049512;28;19932;-58
2022/07/10 10:10:21;;;;;;;;;;;24.90;90.40;;;;;;5054868;28;20304;-56
2022/07/10 10:12:51;;;;;;;;;;;24.90;90.50;;;;;;5053552;28;19932;-56
2022/07/10 10:15:19;;;;;;;;;;;25.00;90.60;;;;;;5059863;28;19931;-53
2022/07/10 10:17:47;;;;;;;;;;;25.00;90.70;;;;;;5052426;28;20696;-56
2022/07/10 10:23:01;;;;;;;;;;;25.00;90.70;;;;;;5049451;28;19921;-56
2022/07/10 10:25:31;;;;;;;;;;;25.00;90.90;;;;;;5057597;28;19973;-55
2022/07/10 10:28:00;;;;;;;;;;;25.00;91.50;;;;;;5074742;28;19924;-57
2022/07/10 10:30:28;;;;;;;;;;;25.00;91.40;;;;;;5054859;28;19920;-57
2022/07/10 10:32:55;;;;;;;;;;;24.90;91.40;;;;;;5065106;28;19924;-56
2022/07/10 10:35:42;;;;;;;;;;;24.90;91.10;;;;;;5053110;28;19925;-56
2022/07/10 10:38:09;;;;;;;;;;;24.80;90.90;;;;;;5051616;28;19928;-54
2022/07/10 10:40:37;;;;;;;;;;;24.70;90.60;;;;;;5048283;28;19932;-55
2022/07/10 10:43:17;;;;;;;;;;;24.60;90.30;;;;;;5062367;28;19951;-57
2022/07/10 10:45:45;;;;;;;;;;;24.60;89.10;;;;;;5052542;28;19925;-53
2022/07/10 10:48:14;;;;;;;;;;;24.60;86.90;;;;;;5060089;28;19963;-55
2022/07/10 10:51:01;;;;;;;;;;;24.70;86.90;;;;;;5061014;28;20303;-57
2022/07/10 10:53:30;;;;;;;;;;;24.70;85.70;;;;;;5049571;28;19932;-57
2022/07/10 10:56:00;;;;;;;;;;;24.70;84.50;;;;;;5048769;28;19921;-55
2022/07/10 10:58:28;;;;;;;;;;;24.80;84.40;;;;;;5056911;28;19928;-58
2022/07/10 11:01:04;;;;;;;;;;;24.80;83.30;;;;;;5055338;28;19932;-53
2022/07/10 11:03:32;;;;;;;;;;;24.80;82.90;;;;;;5054770;28;19925;-58
2022/07/10 11:06:02;;;;;;;;;;;24.80;82.70;;;;;;5059426;28;20318;-57
2022/07/10 11:08:37;;;;;;;;;;;24.80;82.40;;;;;;5058890;28;20410;-55
2022/07/10 11:11:23;;;;;;;;;;;24.70;82.20;;;;;;5054287;28;19924;-58
2022/07/10 11:13:56;;;;;;;;;;;24.70;82.00;;;;;;5057558;28;19924;-57
2022/07/10 11:16:24;;;;;;;;;;;24.70;81.90;;;;;;5049518;28;19931;-59
2022/07/10 11:18:53;;;;;;;;;;;24.80;82.30;;;;;;5060550;28;19928;-58
2022/07/10 11:21:22;;;;;;;;;;;24.70;82.10;;;;;;5060822;28;20042;-57
2022/07/10 11:23:58;;;;;;;;;;;24.70;82.10;;;;;;5057723;28;19925;-58
2022/07/10 11:26:54;;;;;;;;;;;24.70;81.40;;;;;;5049728;28;19929;-59
2022/07/10 11:29:21;;;;;;;;;;;24.70;81.10;;;;;;5059372;28;19927;-54
2022/07/10 11:31:52;;;;;;;;;;;24.60;80.60;;;;;;5048422;28;20388;-53
2022/07/10 11:34:22;;;;;;;;;;;24.60;80.60;;;;;;5046497;28;19933;-56
2022/07/10 11:36:49;;;;;;;;;;;24.70;80.80;;;;;;5047303;28;19925;-56
2022/07/10 11:39:16;;;;;;;;;;;24.70;81.00;;;;;;5049125;28;19932;-55
2022/07/10 11:41:47;;;;;;;;;;;24.70;81.30;;;;;;5052209;28;19947;-56
2022/07/10 11:44:19;;;;;;;;;;;24.70;81.50;;;;;;5048338;28;19925;-57
2022/07/10 11:46:49;;;;;;;;;;;24.60;81.60;;;;;;5046185;28;19932;-57
2022/07/10 11:49:17;;;;;;;;;;;24.60;81.80;;;;;;5060480;28;19920;-54
2022/07/10 11:51:44;;;;;;;;;;;24.60;82.00;;;;;;5068617;28;20307;-54
2022/07/10 11:54:15;;;;;;;;;;;24.60;82.10;;;;;;5058209;28;19924;-57
2022/07/10 11:56:47;;;;;;;;;;;24.60;82.30;;;;;;5058049;28;19924;-55
2022/07/10 11:59:14;;;;;;;;;;;24.60;82.40;;;;;;5051773;28;19929;-53
2022/07/10 12:01:43;;;;;;;;;;;24.60;82.60;;;;;;5059927;28;19943;-56
2022/07/10 12:04:10;;;;;;;;;;;24.60;82.70;;;;;;5061779;28;19921;-57
2022/07/10 12:06:39;;;;;;;;;;;24.60;82.90;;;;;;5052849;28;19924;-58
2022/07/10 12:09:07;;;;;;;;;;;24.60;83.00;;;;;;5072002;28;19925;-55
2022/07/10 12:11:35;;;;;;;;;;;24.60;83.10;;;;;;5061646;28;20565;-51
2022/07/10 12:14:08;;;;;;;;;;;24.60;83.20;;;;;;5054797;28;19957;-52
2022/07/10 12:16:36;;;;;;;;;;;24.70;83.30;;;;;;5055489;28;19931;-56
2022/07/10 12:19:05;;;;;;;;;;;24.70;83.50;;;;;;5050268;28;19931;-58
2022/07/10 12:21:33;;;;;;;;;;;24.70;83.50;;;;;;5048872;28;19925;-57
2022/07/10 12:24:03;;;;;;;;;;;24.70;83.50;;;;;;5049739;28;20020;-55
2022/07/10 12:26:34;;;;;;;;;;;24.70;83.60;;;;;;5053730;28;19921;-52
2022/07/10 12:29:02;;;;;;;;;;;24.60;83.70;;;;;;5050401;28;19932;-54
2022/07/10 12:31:34;;;;;;;;;;;24.70;83.90;;;;;;5051284;28;19925;-52
2022/07/10 12:34:02;;;;;;;;;;;24.70;83.90;;;;;;5049731;28;20392;-53
2022/07/10 12:36:45;;;;;;;;;;;24.70;84.00;;;;;;5052853;28;19924;-55
2022/07/10 12:39:13;;;;;;;;;;;24.70;84.10;;;;;;5050580;28;19932;-53
2022/07/10 12:42:03;;;;;;;;;;;24.70;84.20;;;;;;5052001;28;19924;-53
2022/07/10 12:44:35;;;;;;;;;;;24.70;84.30;;;;;;5050416;28;19932;-58
2022/07/10 12:47:02;;;;;;;;;;;24.60;84.30;;;;;;5051616;28;20311;-56
2022/07/10 12:49:29;;;;;;;;;;;24.70;84.40;;;;;;5051572;28;19932;-51
2022/07/10 12:51:59;;;;;;;;;;;24.70;84.50;;;;;;5049826;28;20391;-53
2022/07/10 12:54:42;;;;;;;;;;;24.70;84.50;;;;;;5048786;28;20417;-54
2022/07/10 12:57:09;;;;;;;;;;;24.60;84.50;;;;;;5068312;28;19931;-53
2022/07/10 12:59:36;;;;;;;;;;;24.70;84.70;;;;;;5056421;28;19924;-49
2022/07/10 13:02:15;;;;;;;;;;;24.60;84.70;;;;;;5053049;28;19932;-51
2022/07/10 13:04:51;;;;;;;;;;;24.70;84.80;;;;;;5048885;28;20323;-52
2022/07/10 13:07:19;;;;;;;;;;;24.70;84.70;;;;;;5050791;28;19936;-58
2022/07/10 13:09:50;;;;;;;;;;;24.70;84.80;;;;;;5049395;28;19955;-53
2022/07/10 13:12:17;;;;;;;;;;;24.70;84.80;;;;;;5056215;28;20163;-56
2022/07/10 13:14:44;;;;;;;;;;;24.70;84.70;;;;;;5051836;28;19925;-57
2022/07/10 13:17:11;;;;;;;;;;;24.70;84.70;;;;;;5049964;28;19924;-52
2022/07/10 13:19:39;;;;;;;;;;;24.80;84.80;;;;;;5067236;28;19951;-55
2022/07/10 13:22:06;;;;;;;;;;;24.70;84.80;;;;;;5055390;28;19925;-54
2022/07/10 13:24:33;;;;;;;;;;;24.80;84.90;;;;;;5049560;28;19928;-53
2022/07/10 13:27:00;;;;;;;;;;;24.70;84.90;;;;;;5049738;28;19920;-51
2022/07/10 13:29:27;;;;;;;;;;;24.70;84.90;;;;;;5049579;28;19925;-54
2022/07/10 13:31:54;;;;;;;;;;;24.70;84.90;;;;;;5049509;28;19921;-50
2022/07/10 13:34:22;;;;;;;;;;;24.70;85.00;;;;;;5049346;28;19948;-52
2022/07/10 13:36:50;;;;;;;;;;;24.70;85.10;;;;;;5056443;28;19924;-52
2022/07/10 13:39:17;;;;;;;;;;;24.70;85.00;;;;;;5049864;28;19940;-54
2022/07/10 13:41:44;;;;;;;;;;;24.70;85.00;;;;;;5055605;28;19924;-53
2022/07/10 13:44:11;;;;;;;;;;;24.70;85.00;;;;;;5048654;28;20288;-56
2022/07/10 13:46:42;;;;;;;;;;;24.70;85.00;;;;;;5060065;28;19924;-50
2022/07/10 13:49:09;;;;;;;;;;;24.70;85.10;;;;;;5054888;28;20368;-56
2022/07/10 13:51:36;;;;;;;;;;;24.70;85.10;;;;;;5048945;28;19927;-54
2022/07/10 13:54:04;;;;;;;;;;;24.70;85.10;;;;;;5053003;28;19924;-57
2022/07/10 13:56:31;;;;;;;;;;;24.70;85.20;;;;;;5052159;28;19921;-53
2022/07/10 13:58:58;;;;;;;;;;;24.80;85.20;;;;;;5049385;28;19931;-58
2022/07/10 14:01:25;;;;;;;;;;;24.80;85.10;;;;;;5067196;28;19920;-52
2022/07/10 14:03:52;;;;;;;;;;;24.80;85.10;;;;;;5056000;28;20020;-56
2022/07/10 14:06:20;;;;;;;;;;;24.80;85.20;;;;;;5058708;28;19928;-51
2022/07/10 14:08:47;;;;;;;;;;;24.80;85.20;;;;;;5062897;28;19924;-52
2022/07/10 14:11:14;;;;;;;;;;;24.80;85.00;;;;;;5051049;28;19924;-51
2022/07/10 14:13:41;;;;;;;;;;;24.80;84.90;;;;;;5051195;28;19925;-51
2022/07/10 14:16:09;;;;;;;;;;;24.80;84.40;;;;;;5058314;28;19940;-52
2022/07/10 14:18:41;;;;;;;;;;;24.80;85.00;;;;;;5055801;28;19924;-55
2022/07/10 14:21:09;;;;;;;;;;;24.90;85.00;;;;;;5056120;28;19931;-52
2022/07/10 14:23:38;;;;;;;;;;;24.80;85.40;;;;;;5058080;28;19924;-56
2022/07/10 14:26:05;;;;;;;;;;;24.90;85.90;;;;;;5056814;28;19924;-54
2022/07/10 14:28:34;;;;;;;;;;;24.90;86.20;;;;;;5055932;28;19931;-54
2022/07/10 14:31:03;;;;;;;;;;;24.90;87.10;;;;;;5061752;28;19923;-52
2022/07/10 14:33:34;;;;;;;;;;;24.90;87.10;;;;;;5051739;28;19925;-59